Forside
METAR-TAF:

METAR-TAF

Lufthavne :

Funafuti, Tuvalu

Breddekreds: 08-31S, længdekreds: 179-13E, højde: 1 m

Aktuelle vejr

Denne rapport blev lavet for 30 minutter siden, kl. 09:00 UTC
Vind 6 kt fra østsydøst
Temperatur 29°C
Fugtighed 79%
Tryk 1011 hPa
Sigt 10 km eller mere
Spredte skyer i en højde af 1700 ft, Optårnet Cumulus.
Brudte skyer i en højde af 10000 ft

METAR: NGFU 230900Z 12006KT 9999 SCT017TCU BKN100 29/25 Q1011

Tid: 21:30 (09:30 UTC)

Vejrudsigter

Denne rapport blev lavet for 4 timer og 12 minutter siden, kl. 05:18 UTC
Foreløbig gælder fra 23 på 06 UTC til 24 på 06 UTC
Vind 7 kt fra øst
Sigt 10 km eller mere
Spredte skyer i en højde af 2000 ft
Spredte skyer i en højde af 10000 ft

TAF: NGFU 230518Z 2306/2406 09007KT 9999 SCT020 SCT100

Vejrobservationer og prognoser fra mere end 4000 lufthavne (METAR og TAF).

De gule og røde prikker repræsenterer de meteorologiske stationer.

Flyt musen over at se navnet på stationen.

Så klik over at se vejr observationer og prognoser.

At skifte det kort: Klik på de grønne knapper med et sort kors for at zoome ind; på den grønne knap med en bindestreg for at zoome ud; eller på de grønne pile for tilstødende kort.


METAR-TAF: